createdAt,value
2018-10-17T00:00:00.102Z,101573.09
2018-10-17T00:00:13.175Z,101580.81
2018-10-17T00:00:24.956Z,101569.77
2018-10-17T00:00:36.745Z,101574.65
2018-10-17T00:00:48.497Z,101575.57
2018-10-17T00:01:00.316Z,101572.95
2018-10-17T00:01:12.133Z,101574.80
2018-10-17T00:01:23.872Z,101575.72
2018-10-17T00:01:35.643Z,101574.27
2018-10-17T00:01:47.417Z,101571.25
2018-10-17T00:01:59.187Z,101585.27
2018-10-17T00:02:10.964Z,101577.27
2018-10-17T00:02:22.723Z,101577.80
2018-10-17T00:02:34.524Z,101575.57
2018-10-17T00:02:46.286Z,101575.57
2018-10-17T00:02:58.090Z,101576.11
2018-10-17T00:03:09.866Z,101572.95
2018-10-17T00:03:21.629Z,101574.65
2018-10-17T00:03:33.414Z,101573.34
2018-10-17T00:03:45.179Z,101574.27
2018-10-17T00:03:56.985Z,101575.96
2018-10-17T00:04:08.763Z,101579.89
2018-10-17T00:04:20.659Z,101581.73
2018-10-17T00:04:32.407Z,101572.38
2018-10-17T00:04:44.159Z,101579.50
2018-10-17T00:04:55.990Z,101574.27
2018-10-17T00:05:08.168Z,101575.18
2018-10-17T00:05:19.855Z,101580.03
2018-10-17T00:05:31.606Z,101574.65
2018-10-17T00:05:43.376Z,101570.33
2018-10-17T00:05:55.137Z,101572.03
2018-10-17T00:06:06.902Z,101573.09
2018-10-17T00:06:18.685Z,101569.02
2018-10-17T00:06:30.434Z,101570.72
2018-10-17T00:06:42.199Z,101571.25
2018-10-17T00:06:54.008Z,101575.57
2018-10-17T00:07:05.740Z,101570.72
2018-10-17T00:07:17.564Z,101576.88
2018-10-17T00:07:29.380Z,101571.08
2018-10-17T00:07:41.158Z,101574.27
2018-10-17T00:07:52.930Z,101571.64
2018-10-17T00:08:04.682Z,101569.95
2018-10-17T00:08:16.446Z,101572.95
2018-10-17T00:08:28.195Z,101569.55
2018-10-17T00:08:39.951Z,101568.63
2018-10-17T00:08:51.711Z,101569.95
2018-10-17T00:09:03.695Z,101568.10
2018-10-17T00:09:15.443Z,101568.45
2018-10-17T00:09:27.205Z,101566.80
2018-10-17T00:09:38.996Z,101572.03
2018-10-17T00:09:50.763Z,101565.83
2018-10-17T00:10:02.570Z,101571.64
2018-10-17T00:10:14.344Z,101570.72
2018-10-17T00:10:26.109Z,101569.77
2018-10-17T00:10:37.865Z,101565.09
2018-10-17T00:10:49.642Z,101572.77
2018-10-17T00:11:01.458Z,101568.45
2018-10-17T00:11:13.177Z,101569.41
2018-10-17T00:11:24.947Z,101569.77
2018-10-17T00:11:36.705Z,101568.10
2018-10-17T00:11:48.462Z,101561.91
2018-10-17T00:12:00.209Z,101566.80
2018-10-17T00:12:11.962Z,101566.61
2018-10-17T00:12:23.743Z,101568.45
2018-10-17T00:12:35.506Z,101568.10
2018-10-17T00:12:47.841Z,101574.27
2018-10-17T00:12:59.634Z,101566.80
2018-10-17T00:13:11.383Z,101566.22
2018-10-17T00:13:23.136Z,101569.02
2018-10-17T00:13:34.922Z,101566.80
2018-10-17T00:13:46.663Z,101571.64
2018-10-17T00:13:58.419Z,101569.77
2018-10-17T00:14:10.172Z,101569.77
2018-10-17T00:14:21.921Z,101569.02
2018-10-17T00:14:33.722Z,101569.95
2018-10-17T00:14:45.482Z,101565.09
2018-10-17T00:14:57.219Z,101571.08
2018-10-17T00:15:09.479Z,101570.72
2018-10-17T00:15:21.250Z,101566.41
2018-10-17T00:15:32.998Z,101562.47
2018-10-17T00:15:44.748Z,101569.41
2018-10-17T00:15:56.540Z,101572.03
2018-10-17T00:16:08.291Z,101571.46
2018-10-17T00:16:20.079Z,101569.41
2018-10-17T00:16:31.840Z,101569.41
2018-10-17T00:16:44.381Z,101569.77
2018-10-17T00:16:56.182Z,101571.08
2018-10-17T00:17:08.621Z,101568.84
2018-10-17T00:17:20.311Z,101572.38
2018-10-17T00:17:32.069Z,101567.92
2018-10-17T00:17:44.863Z,101565.83
2018-10-17T00:17:56.708Z,101571.46
2018-10-17T00:18:08.492Z,101570.33
2018-10-17T00:18:20.282Z,101567.14
2018-10-17T00:18:32.824Z,101570.33
2018-10-17T00:18:44.589Z,101566.61
2018-10-17T00:18:56.393Z,101567.71
2018-10-17T00:19:08.207Z,101569.23
2018-10-17T00:19:19.897Z,101569.62
2018-10-17T00:19:31.684Z,101568.84
2018-10-17T00:19:43.439Z,101565.30
2018-10-17T00:19:55.220Z,101568.45
2018-10-17T00:20:07.009Z,101572.03
2018-10-17T00:20:18.786Z,101565.48
2018-10-17T00:20:30.567Z,101567.14
2018-10-17T00:20:42.348Z,101562.30
2018-10-17T00:20:54.116Z,101566.22
2018-10-17T00:21:05.912Z,101568.84
2018-10-17T00:21:17.658Z,101564.52
2018-10-17T00:21:29.414Z,101567.14
2018-10-17T00:21:41.173Z,101561.38
2018-10-17T00:21:52.931Z,101563.98
2018-10-17T00:22:04.669Z,101568.45
2018-10-17T00:22:17.077Z,101564.52
2018-10-17T00:22:28.836Z,101567.14
2018-10-17T00:22:40.590Z,101563.22
2018-10-17T00:22:52.767Z,101561.91
2018-10-17T00:23:04.542Z,101567.00
2018-10-17T00:23:16.381Z,101565.83
2018-10-17T00:23:28.127Z,101571.08
2018-10-17T00:23:39.875Z,101563.22
2018-10-17T00:23:51.663Z,101566.61
2018-10-17T00:24:03.423Z,101568.45
2018-10-17T00:24:15.200Z,101565.30
2018-10-17T00:24:26.995Z,101565.69
2018-10-17T00:24:38.731Z,101563.60
2018-10-17T00:24:50.516Z,101564.52
2018-10-17T00:25:02.342Z,101567.14
2018-10-17T00:25:14.129Z,101564.17
2018-10-17T00:25:25.852Z,101566.61
2018-10-17T00:25:37.616Z,101565.83
2018-10-17T00:25:49.382Z,101566.22
2018-10-17T00:26:01.153Z,101565.69
2018-10-17T00:26:12.918Z,101562.68
2018-10-17T00:26:25.485Z,101564.77
2018-10-17T00:26:37.249Z,101556.13
2018-10-17T00:26:49.181Z,101565.69
2018-10-17T00:27:01.986Z,101565.69
2018-10-17T00:27:13.731Z,101561.77
2018-10-17T00:27:25.695Z,101566.61
2018-10-17T00:27:37.548Z,101565.30
2018-10-17T00:27:49.339Z,101566.61
2018-10-17T00:28:01.098Z,101569.23
2018-10-17T00:28:12.845Z,101569.23
2018-10-17T00:28:24.602Z,101569.23
2018-10-17T00:28:36.354Z,101571.70
2018-10-17T00:28:48.119Z,101562.54
2018-10-17T00:29:00.524Z,101570.55
2018-10-17T00:29:12.323Z,101570.55
2018-10-17T00:29:24.009Z,101571.46
2018-10-17T00:29:35.760Z,101564.38
2018-10-17T00:29:47.537Z,101570.01
2018-10-17T00:29:59.338Z,101572.63
2018-10-17T00:30:11.811Z,101567.00
2018-10-17T00:30:24.451Z,101567.39
2018-10-17T00:30:36.278Z,101567.39
2018-10-17T00:30:48.049Z,101565.69
2018-10-17T00:30:59.810Z,101566.61
2018-10-17T00:31:11.615Z,101570.55
2018-10-17T00:31:23.367Z,101568.70
2018-10-17T00:31:35.143Z,101569.62
2018-10-17T00:31:46.903Z,101567.00
2018-10-17T00:31:58.672Z,101567.92
2018-10-17T00:32:10.451Z,101573.55
2018-10-17T00:32:22.227Z,101570.93
2018-10-17T00:32:33.975Z,101570.93
2018-10-17T00:32:45.726Z,101571.31
2018-10-17T00:32:57.529Z,101570.01
2018-10-17T00:33:09.303Z,101577.09
2018-10-17T00:33:21.095Z,101574.47
2018-10-17T00:33:32.889Z,101576.55
2018-10-17T00:33:44.650Z,101573.79
2018-10-17T00:33:56.444Z,101578.64
2018-10-17T00:35:23.439Z,101571.31
2018-10-17T00:35:35.191Z,101575.25
2018-10-17T00:35:46.979Z,101572.23
2018-10-17T00:35:58.714Z,101569.62
2018-10-17T00:36:10.459Z,101577.87
2018-10-17T00:36:22.221Z,101569.09
2018-10-17T00:36:33.995Z,101572.23
2018-10-17T00:36:45.771Z,101570.78
2018-10-17T00:36:58.367Z,101573.02
2018-10-17T00:37:10.276Z,101570.93
2018-10-17T00:37:21.912Z,101570.01
2018-10-17T00:37:34.686Z,101568.70
2018-10-17T00:37:46.445Z,101571.70
2018-10-17T00:37:59.067Z,101574.33
2018-10-17T00:38:10.939Z,101575.63
2018-10-17T00:38:22.721Z,101572.63
2018-10-17T00:38:34.473Z,101576.02
2018-10-17T00:38:46.311Z,101573.02
2018-10-17T00:38:58.071Z,101573.55
2018-10-17T00:39:11.085Z,101577.48
2018-10-17T00:39:22.860Z,101571.70
2018-10-17T00:39:34.606Z,101573.55
2018-10-17T00:39:46.599Z,101569.09
2018-10-17T00:39:58.342Z,101573.55
2018-10-17T00:40:10.096Z,101571.70
2018-10-17T00:40:24.774Z,101568.70
2018-10-17T00:40:36.607Z,101570.39
2018-10-17T00:40:48.346Z,101575.25
2018-10-17T00:41:00.125Z,101568.31
2018-10-17T00:41:12.602Z,101566.47
2018-10-17T00:41:24.312Z,101572.63
2018-10-17T00:41:36.174Z,101566.86
2018-10-17T00:41:47.955Z,101573.02
2018-10-17T00:41:59.739Z,101569.09
2018-10-17T00:42:11.499Z,101568.94
2018-10-17T00:42:23.263Z,101567.78
2018-10-17T00:42:35.254Z,101570.78
2018-10-17T00:42:47.003Z,101562.39
2018-10-17T00:42:58.784Z,101562.00
2018-10-17T00:43:10.619Z,101565.94
2018-10-17T00:43:22.296Z,101568.16
2018-10-17T00:43:34.039Z,101568.16
2018-10-17T00:43:46.799Z,101565.94
2018-10-17T00:43:58.557Z,101567.24
2018-10-17T00:44:10.327Z,101567.24
2018-10-17T00:44:22.109Z,101562.39
2018-10-17T00:44:33.865Z,101565.94
2018-10-17T00:44:45.615Z,101563.70
2018-10-17T00:44:57.455Z,101565.94
2018-10-17T00:45:09.270Z,101561.08
2018-10-17T00:45:21.099Z,101564.23
2018-10-17T00:45:32.851Z,101564.23
2018-10-17T00:45:44.634Z,101565.94
2018-10-17T00:45:56.416Z,101562.92
2018-10-17T00:46:08.158Z,101562.92
2018-10-17T00:46:19.917Z,101559.92
2018-10-17T00:46:31.654Z,101559.00
2018-10-17T00:46:43.474Z,101561.23
2018-10-17T00:46:55.304Z,101559.92
2018-10-17T00:47:07.123Z,101557.69
2018-10-17T00:47:18.824Z,101560.30
2018-10-17T00:47:30.579Z,101557.69
2018-10-17T00:47:42.363Z,101561.23
2018-10-17T00:47:54.123Z,101558.61
2018-10-17T00:48:05.874Z,101563.45
2018-10-17T00:48:17.738Z,101558.61
2018-10-17T00:48:29.514Z,101556.77
2018-10-17T00:48:41.522Z,101554.68
2018-10-17T00:48:53.301Z,101562.92
2018-10-17T00:49:05.236Z,101556.91
2018-10-17T00:49:17.053Z,101561.23
2018-10-17T00:49:28.749Z,101558.61
2018-10-17T00:49:40.498Z,101556.91
2018-10-17T00:49:52.298Z,101562.00
2018-10-17T00:50:04.068Z,101559.39
2018-10-17T00:50:15.850Z,101559.39
2018-10-17T00:50:27.609Z,101556.77
2018-10-17T00:50:39.375Z,101559.39
2018-10-17T00:50:51.146Z,101558.08
2018-10-17T00:51:02.912Z,101559.00
2018-10-17T00:51:14.689Z,101558.47
2018-10-17T00:51:26.499Z,101559.00
2018-10-17T00:51:38.285Z,101559.77
2018-10-17T00:51:50.050Z,101558.08
2018-10-17T00:52:01.812Z,101559.77
2018-10-17T00:52:13.563Z,101556.77
2018-10-17T00:52:25.313Z,101556.77
2018-10-17T00:52:37.162Z,101561.23
2018-10-17T00:52:48.923Z,101560.30
2018-10-17T00:53:01.525Z,101561.08
2018-10-17T00:53:13.389Z,101561.08
2018-10-17T00:53:25.096Z,101562.54
2018-10-17T00:53:36.855Z,101554.92
2018-10-17T00:53:48.605Z,101557.55
2018-10-17T00:54:00.367Z,101553.61
2018-10-17T00:54:12.115Z,101555.45
2018-10-17T00:54:24.778Z,101556.77
2018-10-17T00:54:36.548Z,101553.61
2018-10-17T00:54:48.368Z,101558.08
2018-10-17T00:55:00.130Z,101557.16
2018-10-17T00:55:11.976Z,101559.24
2018-10-17T00:55:23.745Z,101555.31
2018-10-17T00:55:35.517Z,101555.84
2018-10-17T00:55:47.264Z,101555.84
2018-10-17T00:55:59.017Z,101559.77
2018-10-17T00:56:10.797Z,101554.92
2018-10-17T00:56:22.568Z,101559.00
2018-10-17T00:56:35.056Z,101557.93
2018-10-17T00:56:46.819Z,101554.53
2018-10-17T00:56:58.578Z,101557.16
2018-10-17T00:57:10.335Z,101558.08
2018-10-17T00:57:22.086Z,101556.77
2018-10-17T00:57:33.844Z,101554.92
2018-10-17T00:57:45.628Z,101553.61
2018-10-17T00:57:57.387Z,101558.85
2018-10-17T00:58:09.160Z,101553.76
2018-10-17T00:58:20.921Z,101555.84
2018-10-17T00:58:32.682Z,101559.00
2018-10-17T00:58:44.457Z,101554.92
2018-10-17T00:58:56.298Z,101559.77
2018-10-17T00:59:11.326Z,101557.16
2018-10-17T00:59:23.055Z,101558.08
2018-10-17T00:59:34.795Z,101550.99
2018-10-17T00:59:46.536Z,101556.77
2018-10-17T00:59:58.308Z,101558.08
2018-10-17T01:00:10.076Z,101555.70
2018-10-17T01:00:21.846Z,101561.62
2018-10-17T01:00:33.611Z,101561.08
2018-10-17T01:00:45.442Z,101554.92
2018-10-17T01:00:57.254Z,101554.00
2018-10-17T01:01:09.084Z,101561.08
2018-10-17T01:01:20.841Z,101556.77
2018-10-17T01:01:32.604Z,101558.08
2018-10-17T01:01:44.855Z,101558.08
2018-10-17T01:01:56.609Z,101556.23
2018-10-17T01:02:08.389Z,101558.47
2018-10-17T01:02:20.120Z,101554.92
2018-10-17T01:02:31.912Z,101555.84
2018-10-17T01:02:43.693Z,101561.47
2018-10-17T01:02:55.456Z,101550.61
2018-10-17T01:03:07.227Z,101553.61
2018-10-17T01:03:19.000Z,101554.39
2018-10-17T01:03:30.772Z,101555.31
2018-10-17T01:03:42.523Z,101559.24
2018-10-17T01:03:54.335Z,101555.70
2018-10-17T01:04:06.108Z,101557.02
2018-10-17T01:04:17.877Z,101553.47
2018-10-17T01:04:29.652Z,101556.23
2018-10-17T01:04:41.408Z,101554.00
2018-10-17T01:04:53.227Z,101556.63
2018-10-17T01:05:04.990Z,101553.08
2018-10-17T01:05:16.864Z,101555.55
2018-10-17T01:05:28.567Z,101561.33
2018-10-17T01:05:40.318Z,101554.78
2018-10-17T01:05:52.085Z,101560.02
2018-10-17T01:06:03.850Z,101559.24
2018-10-17T01:06:15.619Z,101557.02
2018-10-17T01:06:27.387Z,101552.16
2018-10-17T01:06:39.659Z,101552.16
2018-10-17T01:06:51.423Z,101554.78
2018-10-17T01:07:03.220Z,101554.25
2018-10-17T01:07:15.039Z,101560.16
2018-10-17T01:07:26.759Z,101553.86
2018-10-17T01:07:38.582Z,101549.93
2018-10-17T01:07:50.336Z,101552.16
2018-10-17T01:08:02.081Z,101556.63
2018-10-17T01:08:13.842Z,101556.09
2018-10-17T01:08:25.636Z,101556.09
2018-10-17T01:08:37.384Z,101555.70
2018-10-17T01:08:49.441Z,101556.63
2018-10-17T01:09:02.164Z,101556.09
2018-10-17T01:09:14.688Z,101561.47
2018-10-17T01:09:27.326Z,101554.78
2018-10-17T01:09:39.064Z,101551.77
2018-10-17T01:09:50.804Z,101550.85
2018-10-17T01:10:03.250Z,101551.63
2018-10-17T01:10:14.989Z,101555.70
2018-10-17T01:10:26.747Z,101554.00
2018-10-17T01:10:38.506Z,101554.78
2018-10-17T01:10:51.479Z,101552.16
2018-10-17T01:11:03.308Z,101549.55
2018-10-17T01:11:15.102Z,101552.55
2018-10-17T01:11:26.821Z,101550.85
2018-10-17T01:11:39.166Z,101550.46
2018-10-17T01:11:50.913Z,101549.93
2018-10-17T01:12:02.665Z,101548.23
2018-10-17T01:12:14.407Z,101550.85
2018-10-17T01:12:26.146Z,101545.08
2018-10-17T01:12:39.400Z,101547.84
2018-10-17T01:12:51.212Z,101552.16
2018-10-17T01:13:02.984Z,101546.39
2018-10-17T01:13:14.732Z,101543.77
2018-10-17T01:13:26.465Z,101549.01
2018-10-17T01:13:38.208Z,101547.31
2018-10-17T01:13:49.958Z,101548.62
2018-10-17T01:14:01.701Z,101550.85
2018-10-17T01:14:13.458Z,101544.69
2018-10-17T01:14:25.220Z,101546.92
2018-10-17T01:14:36.987Z,101550.46
2018-10-17T01:14:48.739Z,101550.46
2018-10-17T01:15:00.486Z,101549.93
2018-10-17T01:15:12.234Z,101544.16
2018-10-17T01:15:23.983Z,101551.77
2018-10-17T01:15:35.737Z,101544.69
2018-10-17T01:15:48.513Z,101546.53
2018-10-17T01:16:00.264Z,101547.31
2018-10-17T01:16:12.009Z,101545.61
2018-10-17T01:16:23.750Z,101545.61
2018-10-17T01:16:36.226Z,101544.69
2018-10-17T01:16:47.987Z,101549.16
2018-10-17T01:16:59.785Z,101542.84
2018-10-17T01:17:11.560Z,101546.92
2018-10-17T01:17:23.448Z,101544.30
2018-10-17T01:17:35.238Z,101555.17
2018-10-17T01:17:47.001Z,101545.22
2018-10-17T01:17:59.493Z,101544.69
2018-10-17T01:18:11.250Z,101546.92
2018-10-17T01:18:22.994Z,101544.69
2018-10-17T01:18:34.750Z,101544.30
2018-10-17T01:18:46.508Z,101541.69
2018-10-17T01:18:58.289Z,101546.53
2018-10-17T01:19:10.119Z,101542.07
2018-10-17T01:19:21.842Z,101546.14
2018-10-17T01:19:33.591Z,101547.45
2018-10-17T01:19:45.355Z,101545.22
2018-10-17T01:19:57.105Z,101545.22
2018-10-17T01:20:10.973Z,101543.91
2018-10-17T01:20:22.723Z,101536.30
2018-10-17T01:20:34.482Z,101539.06
2018-10-17T01:20:46.231Z,101546.53
2018-10-17T01:20:57.966Z,101541.69
2018-10-17T01:21:09.701Z,101540.38
2018-10-17T01:21:21.447Z,101542.22
2018-10-17T01:21:33.586Z,101538.67
2018-10-17T01:21:45.360Z,101539.06
2018-10-17T01:21:57.146Z,101542.46
2018-10-17T01:22:08.886Z,101541.54
2018-10-17T01:22:20.647Z,101536.44
2018-10-17T01:22:32.403Z,101542.60
2018-10-17T01:22:45.399Z,101542.99
2018-10-17T01:22:57.160Z,101538.53
2018-10-17T01:23:09.837Z,101540.77
2018-10-17T01:23:21.610Z,101542.07
2018-10-17T01:23:33.895Z,101540.77
2018-10-17T01:23:45.647Z,101539.06
2018-10-17T01:23:57.419Z,101539.84
2018-10-17T01:24:09.171Z,101540.77
2018-10-17T01:24:20.924Z,101537.47
2018-10-17T01:24:32.685Z,101536.69
2018-10-17T01:24:44.435Z,101538.00
2018-10-17T01:24:56.216Z,101532.77
2018-10-17T01:25:08.000Z,101535.77
2018-10-17T01:25:19.742Z,101534.06
2018-10-17T01:25:31.519Z,101536.30
2018-10-17T01:25:43.263Z,101532.37
2018-10-17T01:25:55.011Z,101536.30
2018-10-17T01:26:06.767Z,101538.14
2018-10-17T01:26:18.527Z,101542.07
2018-10-17T01:26:30.284Z,101542.99
2018-10-17T01:26:42.020Z,101538.14
2018-10-17T01:26:53.788Z,101537.61
2018-10-17T01:27:05.569Z,101540.23
2018-10-17T01:27:17.319Z,101538.53
2018-10-17T01:27:29.058Z,101532.91
2018-10-17T01:27:40.789Z,101538.00
2018-10-17T01:27:52.521Z,101533.68
2018-10-17T01:28:04.276Z,101531.59
2018-10-17T01:28:16.057Z,101535.91
2018-10-17T01:28:27.822Z,101528.45
2018-10-17T01:28:39.578Z,101535.37
2018-10-17T01:28:51.735Z,101543.38
2018-10-17T01:29:04.285Z,101535.77
2018-10-17T01:29:16.161Z,101535.77
2018-10-17T01:29:28.320Z,101534.46
2018-10-17T01:29:40.067Z,101532.62
2018-10-17T01:29:51.830Z,101530.92
2018-10-17T01:30:03.578Z,101531.84
2018-10-17T01:30:15.343Z,101529.08
2018-10-17T01:30:27.105Z,101530.14
2018-10-17T01:30:38.868Z,101537.61
2018-10-17T01:30:50.619Z,101530.14
2018-10-17T01:31:02.444Z,101531.84
2018-10-17T01:31:15.040Z,101532.37
2018-10-17T01:31:26.721Z,101529.61
2018-10-17T01:31:38.470Z,101533.15
2018-10-17T01:31:50.236Z,101527.13
2018-10-17T01:32:02.019Z,101533.15
2018-10-17T01:32:13.784Z,101534.06
2018-10-17T01:32:25.539Z,101531.45
2018-10-17T01:32:37.287Z,101529.22
2018-10-17T01:32:49.973Z,101530.14
2018-10-17T01:33:01.733Z,101535.37
2018-10-17T01:33:14.157Z,101527.91
2018-10-17T01:33:25.915Z,101532.77
2018-10-17T01:33:37.654Z,101533.68
2018-10-17T01:33:49.438Z,101535.37
2018-10-17T01:34:01.983Z,101537.61
2018-10-17T01:34:13.747Z,101529.36
2018-10-17T01:34:25.494Z,101533.30
2018-10-17T01:34:37.266Z,101534.06
2018-10-17T01:34:49.021Z,101529.75
2018-10-17T01:35:00.824Z,101530.67
2018-10-17T01:35:12.567Z,101533.30
2018-10-17T01:35:24.293Z,101536.83
2018-10-17T01:35:36.042Z,101534.99
2018-10-17T01:35:47.778Z,101534.99
2018-10-17T01:35:59.532Z,101531.45
2018-10-17T01:36:11.283Z,101534.99
2018-10-17T01:36:23.059Z,101531.98
2018-10-17T01:36:34.821Z,101534.60
2018-10-17T01:36:47.302Z,101535.91
2018-10-17T01:36:59.068Z,101531.59
2018-10-17T01:37:10.927Z,101530.14
2018-10-17T01:37:22.598Z,101534.99
2018-10-17T01:37:34.350Z,101541.92
2018-10-17T01:37:46.098Z,101532.23
2018-10-17T01:37:57.856Z,101531.45
2018-10-17T01:38:09.612Z,101534.99
2018-10-17T01:38:21.371Z,101533.15
2018-10-17T01:38:33.121Z,101529.61
2018-10-17T01:38:44.866Z,101530.92
2018-10-17T01:38:56.601Z,101534.99
2018-10-17T01:39:08.729Z,101533.68
2018-10-17T01:39:20.484Z,101530.92
2018-10-17T01:39:32.248Z,101528.83
2018-10-17T01:39:44.011Z,101528.45
2018-10-17T01:39:55.761Z,101534.06
2018-10-17T01:40:07.914Z,101533.68
2018-10-17T01:40:19.669Z,101534.46
2018-10-17T01:40:31.412Z,101530.53
2018-10-17T01:40:43.168Z,101533.68
2018-10-17T01:40:54.921Z,101532.77
2018-10-17T01:41:06.698Z,101531.06
2018-10-17T01:41:18.631Z,101531.06
2018-10-17T01:41:30.251Z,101527.91
2018-10-17T01:41:42.043Z,101534.06
2018-10-17T01:41:53.807Z,101533.53
2018-10-17T01:42:05.672Z,101531.70
2018-10-17T01:42:17.395Z,101530.53
2018-10-17T01:42:29.154Z,101530.53
2018-10-17T01:42:41.853Z,101528.83
2018-10-17T01:42:53.646Z,101532.77
2018-10-17T01:43:05.404Z,101534.99
2018-10-17T01:43:17.207Z,101533.92
2018-10-17T01:43:29.126Z,101534.84
2018-10-17T01:43:40.984Z,101535.77
2018-10-17T01:43:53.593Z,101532.23
2018-10-17T01:44:05.330Z,101532.77
2018-10-17T01:44:17.085Z,101531.31
2018-10-17T01:44:28.843Z,101536.55
2018-10-17T01:44:40.605Z,101535.77
2018-10-17T01:44:52.367Z,101531.31
2018-10-17T01:45:04.187Z,101529.08
2018-10-17T01:45:15.952Z,101533.53
2018-10-17T01:45:27.685Z,101533.92
2018-10-17T01:45:39.447Z,101535.77
2018-10-17T01:45:51.202Z,101529.08
2018-10-17T01:46:02.952Z,101536.16
2018-10-17T01:46:14.712Z,101534.31
2018-10-17T01:46:26.451Z,101531.31
2018-10-17T01:46:38.218Z,101537.86
2018-10-17T01:46:49.975Z,101536.94
2018-10-17T01:47:01.740Z,101531.16
2018-10-17T01:47:13.559Z,101529.32
2018-10-17T01:47:25.322Z,101532.47
2018-10-17T01:47:37.265Z,101534.31
2018-10-17T01:47:49.014Z,101534.31
2018-10-17T01:48:00.778Z,101534.84
2018-10-17T01:48:12.536Z,101537.86
2018-10-17T01:48:24.292Z,101536.94
2018-10-17T01:48:36.048Z,101537.32
2018-10-17T01:48:47.791Z,101531.55
2018-10-17T01:48:59.565Z,101535.48
2018-10-17T01:49:11.348Z,101531.55
2018-10-17T01:49:23.088Z,101535.48
2018-10-17T01:49:34.843Z,101531.16
2018-10-17T01:49:46.586Z,101534.17
2018-10-17T01:49:58.332Z,101526.31
2018-10-17T01:50:10.788Z,101530.77
2018-10-17T01:50:22.535Z,101533.39
2018-10-17T01:50:34.321Z,101530.77
2018-10-17T01:50:46.059Z,101536.02
2018-10-17T01:50:58.161Z,101533.00
2018-10-17T01:51:09.918Z,101533.39
2018-10-17T01:51:21.752Z,101536.79
2018-10-17T01:51:33.494Z,101536.40
2018-10-17T01:51:45.245Z,101529.85
2018-10-17T01:51:56.985Z,101531.55
2018-10-17T01:52:08.760Z,101533.78
2018-10-17T01:52:20.515Z,101530.24
2018-10-17T01:52:32.290Z,101533.00
2018-10-17T01:52:44.043Z,101530.24
2018-10-17T01:52:55.805Z,101530.77
2018-10-17T01:53:07.618Z,101531.55
2018-10-17T01:53:19.343Z,101531.55
2018-10-17T01:53:31.250Z,101528.55
2018-10-17T01:53:42.998Z,101531.70
2018-10-17T01:53:54.762Z,101534.17
2018-10-17T01:54:07.250Z,101531.55
2018-10-17T01:54:18.992Z,101535.09
2018-10-17T01:54:30.726Z,101530.77
2018-10-17T01:54:42.508Z,101530.39
2018-10-17T01:54:54.256Z,101533.39
2018-10-17T01:55:06.055Z,101532.23
2018-10-17T01:55:17.785Z,101537.08
2018-10-17T01:55:29.540Z,101533.15
2018-10-17T01:55:41.296Z,101529.47
2018-10-17T01:55:53.042Z,101534.70
2018-10-17T01:56:04.821Z,101531.16
2018-10-17T01:56:16.561Z,101529.47
2018-10-17T01:56:28.297Z,101536.02
2018-10-17T01:56:40.093Z,101526.84
2018-10-17T01:56:51.836Z,101530.77
2018-10-17T01:57:03.584Z,101528.16
2018-10-17T01:57:15.335Z,101534.70
2018-10-17T01:57:27.083Z,101530.24
2018-10-17T01:57:38.859Z,101528.55
2018-10-17T01:57:50.611Z,101530.77
2018-10-17T01:58:02.362Z,101525.00
2018-10-17T01:58:25.571Z,101530.77
2018-10-17T01:58:37.320Z,101531.16
2018-10-17T01:58:49.075Z,101530.77
2018-10-17T01:59:00.888Z,101522.53
2018-10-17T01:59:12.593Z,101530.39
2018-10-17T01:59:24.351Z,101526.45
2018-10-17T01:59:36.174Z,101522.77
2018-10-17T01:59:47.913Z,101528.16
2018-10-17T01:59:59.653Z,101530.77
2018-10-17T02:00:12.093Z,101529.47
2018-10-17T02:00:23.899Z,101525.00
2018-10-17T02:00:35.652Z,101524.61
2018-10-17T02:00:47.408Z,101526.84
2018-10-17T02:00:59.211Z,101530.77
2018-10-17T02:01:11.022Z,101526.84
2018-10-17T02:01:23.356Z,101524.61
2018-10-17T02:01:35.136Z,101525.53
2018-10-17T02:01:46.892Z,101524.61
2018-10-17T02:01:59.671Z,101526.31
2018-10-17T02:02:11.417Z,101529.85
2018-10-17T02:02:23.877Z,101522.77
2018-10-17T02:02:35.627Z,101519.97
2018-10-17T02:02:48.266Z,101528.36
2018-10-17T02:03:00.022Z,101524.44
2018-10-17T02:03:11.779Z,101527.63
2018-10-17T02:03:23.575Z,101534.91
2018-10-17T02:03:35.330Z,101524.83
2018-10-17T02:03:47.073Z,101528.22
2018-10-17T02:03:58.829Z,101527.44
2018-10-17T02:04:10.584Z,101527.83
2018-10-17T02:04:22.360Z,101528.75
2018-10-17T02:04:34.106Z,101529.14
2018-10-17T02:04:45.860Z,101527.44
2018-10-17T02:04:57.654Z,101528.75
2018-10-17T02:05:09.414Z,101528.75
2018-10-17T02:05:21.174Z,101528.75
2018-10-17T02:05:32.920Z,101525.60
2018-10-17T02:05:44.679Z,101527.30
2018-10-17T02:05:56.438Z,101524.30
2018-10-17T02:06:09.241Z,101527.83
2018-10-17T02:06:21.717Z,101527.83
2018-10-17T02:06:33.482Z,101527.44
2018-10-17T02:06:45.236Z,101523.12
2018-10-17T02:06:57.014Z,101528.75
2018-10-17T02:07:08.852Z,101527.83
2018-10-17T02:07:21.607Z,101525.21
2018-10-17T02:07:33.360Z,101531.55
2018-10-17T02:07:45.110Z,101529.67
2018-10-17T02:07:56.877Z,101528.01
2018-10-17T02:08:08.641Z,101529.32
2018-10-17T02:08:20.420Z,101530.62
2018-10-17T02:08:32.186Z,101530.24
2018-10-17T02:08:43.952Z,101532.47
2018-10-17T02:08:55.689Z,101526.70
2018-10-17T02:09:07.454Z,101531.55
2018-10-17T02:09:19.216Z,101530.62
2018-10-17T02:09:30.973Z,101528.36
2018-10-17T02:09:42.723Z,101528.01
2018-10-17T02:09:54.483Z,101527.23
2018-10-17T02:10:06.227Z,101531.94
2018-10-17T02:10:18.159Z,101527.63
2018-10-17T02:10:29.911Z,101527.05
2018-10-17T02:10:42.671Z,101533.25
2018-10-17T02:10:54.419Z,101525.74
2018-10-17T02:11:06.238Z,101533.78
2018-10-17T02:11:18.023Z,101526.31
2018-10-17T02:11:29.716Z,101529.85
2018-10-17T02:11:41.494Z,101526.70
2018-10-17T02:11:53.246Z,101526.31
2018-10-17T02:12:04.997Z,101528.55
2018-10-17T02:12:16.743Z,101526.31
2018-10-17T02:12:28.510Z,101528.94
2018-10-17T02:12:40.308Z,101532.86
2018-10-17T02:12:52.057Z,101528.55
2018-10-17T02:13:03.887Z,101530.24
2018-10-17T02:13:15.618Z,101531.55
2018-10-17T02:13:27.384Z,101525.74
2018-10-17T02:13:39.123Z,101523.12
2018-10-17T02:13:50.879Z,101527.05
2018-10-17T02:14:02.632Z,101529.85
2018-10-17T02:14:14.386Z,101529.67
2018-10-17T02:14:26.239Z,101528.94
2018-10-17T02:14:37.992Z,101525.39
2018-10-17T02:14:49.767Z,101528.36
2018-10-17T02:15:01.519Z,101527.44
2018-10-17T02:15:13.270Z,101527.44
2018-10-17T02:15:25.014Z,101530.06
2018-10-17T02:15:36.771Z,101526.13
2018-10-17T02:15:48.721Z,101522.20
2018-10-17T02:16:00.475Z,101528.01
2018-10-17T02:16:12.224Z,101526.70
2018-10-17T02:16:23.976Z,101527.05
2018-10-17T02:16:35.800Z,101527.05